createdAt,value
2023-02-05T00:01:59.058Z,12.65
2023-02-05T00:04:25.696Z,9.75
2023-02-05T00:06:53.912Z,10.95
2023-02-05T00:09:20.372Z,12.50
2023-02-05T00:11:47.053Z,14.73
2023-02-05T00:14:13.582Z,9.35
2023-02-05T00:16:40.094Z,8.68
2023-02-05T00:19:08.376Z,8.90
2023-02-05T00:21:35.237Z,8.23
2023-02-05T00:24:05.762Z,14.35
2023-02-05T00:26:32.536Z,10.43
2023-02-05T00:28:59.124Z,8.55
2023-02-05T00:31:25.863Z,8.40
2023-02-05T00:33:54.005Z,7.13
2023-02-05T00:36:21.705Z,7.97
2023-02-05T00:38:51.557Z,10.38
2023-02-05T00:41:20.135Z,8.10
2023-02-05T00:43:46.710Z,10.05
2023-02-05T00:46:14.301Z,6.25
2023-02-05T00:48:45.405Z,6.68
2023-02-05T00:51:12.331Z,7.95
2023-02-05T00:53:39.194Z,6.40
2023-02-05T00:56:06.264Z,12.90
2023-02-05T00:58:33.013Z,10.60
2023-02-05T01:00:59.857Z,8.13
2023-02-05T01:03:28.722Z,9.55
2023-02-05T01:05:55.314Z,8.70
2023-02-05T01:08:21.812Z,10.55
2023-02-05T01:10:52.109Z,9.55
2023-02-05T01:13:19.064Z,10.30
2023-02-05T01:15:45.918Z,17.90
2023-02-05T01:18:12.956Z,18.70
2023-02-05T01:20:41.078Z,11.18
2023-02-05T01:23:07.825Z,12.07
2023-02-05T01:25:36.322Z,8.35
2023-02-05T01:28:03.438Z,16.05
2023-02-05T01:30:29.932Z,13.70
2023-02-05T01:33:01.238Z,12.35
2023-02-05T01:35:27.781Z,10.95
2023-02-05T01:37:54.244Z,19.48
2023-02-05T01:40:23.226Z,19.73
2023-02-05T01:42:50.157Z,28.20
2023-02-05T01:45:22.630Z,32.15
2023-02-05T01:47:52.126Z,47.20
2023-02-05T01:50:41.302Z,16.45
2023-02-05T01:53:19.704Z,25.20
2023-02-05T01:55:58.419Z,39.83
2023-02-05T01:58:30.135Z,17.95
2023-02-05T02:00:57.412Z,15.48
2023-02-05T02:03:28.067Z,10.45
2023-02-05T02:05:55.980Z,9.45
2023-02-05T02:08:22.497Z,10.15
2023-02-05T02:10:51.531Z,10.30
2023-02-05T02:13:21.076Z,12.90
2023-02-05T02:15:50.050Z,9.63
2023-02-05T02:18:27.243Z,7.95
2023-02-05T02:21:13.300Z,7.63
2023-02-05T02:23:59.674Z,6.28
2023-02-05T02:27:01.385Z,9.38
2023-02-05T02:29:59.172Z,8.70
2023-02-05T02:32:41.227Z,7.72
2023-02-05T02:35:23.342Z,10.20
2023-02-05T02:37:58.388Z,10.23
2023-02-05T02:40:44.417Z,10.57
2023-02-05T02:43:17.615Z,9.40
2023-02-05T02:45:53.525Z,16.35
2023-02-05T02:48:24.079Z,12.23
2023-02-05T02:50:54.032Z,9.43
2023-02-05T02:53:25.608Z,5.85
2023-02-05T02:55:56.075Z,14.23
2023-02-05T02:58:32.162Z,7.88
2023-02-05T03:01:01.766Z,8.38
2023-02-05T03:03:30.573Z,7.72
2023-02-05T03:06:02.797Z,15.95
2023-02-05T03:08:37.409Z,12.32
2023-02-05T03:11:19.410Z,13.82
2023-02-05T03:13:46.526Z,13.02
2023-02-05T03:16:16.081Z,10.65
2023-02-05T03:18:49.251Z,7.88
2023-02-05T03:21:21.773Z,10.52
2023-02-05T03:23:49.417Z,12.40
2023-02-05T03:26:28.175Z,11.98
2023-02-05T03:28:57.122Z,9.98
2023-02-05T03:31:35.090Z,11.50
2023-02-05T03:34:22.650Z,8.30
2023-02-05T03:36:59.453Z,9.73
2023-02-05T03:39:37.967Z,10.55
2023-02-05T03:42:17.651Z,5.55
2023-02-05T03:45:22.687Z,5.57
2023-02-05T03:48:22.857Z,7.45
2023-02-05T03:50:55.460Z,8.05
2023-02-05T03:53:56.563Z,7.95
2023-02-05T03:56:33.877Z,5.65
2023-02-05T03:59:04.345Z,7.60
2023-02-05T04:01:31.741Z,7.05
2023-02-05T04:04:00.545Z,10.85
2023-02-05T04:06:27.343Z,8.13
2023-02-05T04:08:53.882Z,9.82
2023-02-05T04:11:20.555Z,7.53
2023-02-05T04:13:49.459Z,6.65
2023-02-05T04:16:16.190Z,5.20
2023-02-05T04:18:42.709Z,7.40
2023-02-05T04:21:11.483Z,7.80
2023-02-05T04:23:38.057Z,8.57
2023-02-05T04:26:04.843Z,7.30
2023-02-05T04:28:32.254Z,6.43
2023-02-05T04:30:58.836Z,11.07
2023-02-05T04:33:25.466Z,8.40
2023-02-05T04:35:54.542Z,7.25
2023-02-05T04:38:21.148Z,9.10
2023-02-05T04:40:47.606Z,10.15
2023-02-05T04:43:16.363Z,14.10
2023-02-05T04:45:42.850Z,8.85
2023-02-05T04:48:09.763Z,7.57
2023-02-05T04:50:38.513Z,9.20
2023-02-05T04:53:05.036Z,12.52
2023-02-05T04:55:32.401Z,7.45
2023-02-05T04:58:04.283Z,7.60
2023-02-05T05:00:30.897Z,7.97
2023-02-05T05:02:58.024Z,10.27
2023-02-05T05:05:26.637Z,8.40
2023-02-05T05:07:53.316Z,6.50
2023-02-05T05:10:20.048Z,5.75
2023-02-05T05:12:46.754Z,8.27
2023-02-05T05:15:13.258Z,6.43
2023-02-05T05:17:39.743Z,6.93
2023-02-05T05:20:08.564Z,14.57
2023-02-05T05:22:37.037Z,10.55
2023-02-05T05:25:03.574Z,9.23
2023-02-05T05:27:31.763Z,8.60
2023-02-05T05:29:58.272Z,8.85
2023-02-05T05:32:24.760Z,6.50
2023-02-05T05:34:55.873Z,6.88
2023-02-05T05:37:24.095Z,7.85
2023-02-05T05:40:10.749Z,7.72
2023-02-05T05:43:00.927Z,5.05
2023-02-05T05:45:27.723Z,6.40
2023-02-05T05:47:54.984Z,8.07
2023-02-05T05:50:21.505Z,5.45
2023-02-05T05:52:49.794Z,6.00
2023-02-05T05:55:16.383Z,12.73
2023-02-05T05:57:42.852Z,10.00
2023-02-05T06:00:12.042Z,9.63
2023-02-05T06:02:44.257Z,10.98
2023-02-05T06:05:11.663Z,11.15
2023-02-05T06:07:38.356Z,11.25
2023-02-05T06:10:05.154Z,27.98
2023-02-05T06:12:31.650Z,10.65
2023-02-05T06:15:04.486Z,17.50
2023-02-05T06:17:30.975Z,11.32
2023-02-05T06:19:57.418Z,9.30
2023-02-05T06:22:36.199Z,11.93
2023-02-05T06:25:04.594Z,10.95
2023-02-05T06:27:31.851Z,11.27
2023-02-05T06:30:05.037Z,7.25
2023-02-05T06:32:31.510Z,6.65
2023-02-05T06:34:57.980Z,8.90
2023-02-05T06:37:46.859Z,11.75
2023-02-05T06:40:18.322Z,16.35
2023-02-05T06:42:47.291Z,13.20
2023-02-05T06:45:13.858Z,19.65
2023-02-05T06:47:40.393Z,17.67
2023-02-05T06:50:09.517Z,24.23
2023-02-05T06:52:36.482Z,22.00
2023-02-05T06:55:02.986Z,22.38
2023-02-05T06:57:31.375Z,18.67
2023-02-05T06:59:58.355Z,26.50
2023-02-05T07:02:25.296Z,25.20
2023-02-05T07:04:51.800Z,20.90
2023-02-05T07:07:18.298Z,17.75
2023-02-05T07:09:44.889Z,25.50
2023-02-05T07:12:13.205Z,24.98
2023-02-05T07:14:40.481Z,24.38
2023-02-05T07:17:07.692Z,15.30
2023-02-05T07:19:34.964Z,14.05
2023-02-05T07:22:01.524Z,47.47
2023-02-05T07:24:31.475Z,31.58
2023-02-05T07:26:59.735Z,46.13
2023-02-05T07:29:27.569Z,50.22
2023-02-05T07:31:54.091Z,36.60
2023-02-05T07:34:27.296Z,31.00
2023-02-05T07:36:53.753Z,18.90
2023-02-05T07:39:20.308Z,29.42
2023-02-05T07:41:46.931Z,20.27
2023-02-05T07:44:15.749Z,23.88
2023-02-05T07:46:42.404Z,24.58
2023-02-05T07:49:09.028Z,25.02
2023-02-05T07:51:35.579Z,28.17
2023-02-05T07:54:06.776Z,22.75
2023-02-05T07:56:42.562Z,39.83
2023-02-05T07:59:11.603Z,29.73
2023-02-05T08:01:38.116Z,23.40
2023-02-05T08:04:04.966Z,23.27
2023-02-05T08:06:33.247Z,25.13
2023-02-05T08:09:03.430Z,26.73
2023-02-05T08:11:41.059Z,34.95
2023-02-05T08:14:07.542Z,29.60
2023-02-05T08:16:35.845Z,47.63
2023-02-05T08:19:02.636Z,58.97
2023-02-05T08:21:29.157Z,63.72
2023-02-05T08:23:57.624Z,37.58
2023-02-05T08:26:24.366Z,26.38
2023-02-05T08:28:51.152Z,45.38
2023-02-05T08:31:19.220Z,27.52
2023-02-05T08:33:47.784Z,29.63
2023-02-05T08:36:16.450Z,36.20
2023-02-05T08:38:42.947Z,29.15
2023-02-05T08:41:14.004Z,30.15
2023-02-05T08:43:46.161Z,22.55
2023-02-05T08:46:15.430Z,22.05
2023-02-05T08:48:42.348Z,26.60
2023-02-05T08:51:14.250Z,20.10
2023-02-05T08:53:41.080Z,17.15
2023-02-05T08:56:14.446Z,19.63
2023-02-05T08:58:43.511Z,17.77
2023-02-05T09:01:14.921Z,20.75
2023-02-05T09:03:41.716Z,29.48
2023-02-05T09:06:12.591Z,20.15
2023-02-05T09:08:39.681Z,20.73
2023-02-05T09:11:07.565Z,21.60
2023-02-05T09:13:39.158Z,19.70
2023-02-05T09:16:05.884Z,21.77
2023-02-05T09:18:36.118Z,23.42
2023-02-05T09:21:09.327Z,31.42
2023-02-05T09:23:36.117Z,18.85
2023-02-05T09:26:05.252Z,22.00
2023-02-05T09:28:33.512Z,23.55
2023-02-05T09:31:06.084Z,16.85
2023-02-05T09:33:32.624Z,16.25
2023-02-05T09:36:06.254Z,22.02
2023-02-05T09:38:34.842Z,29.45
2023-02-05T09:41:29.173Z,32.15
2023-02-05T09:44:07.148Z,30.27
2023-02-05T09:47:03.528Z,22.52
2023-02-05T09:49:36.800Z,23.30
2023-02-05T09:52:13.786Z,29.65
2023-02-05T09:54:43.899Z,22.63
2023-02-05T09:57:17.187Z,25.27
2023-02-05T09:59:46.005Z,30.50
2023-02-05T10:02:28.617Z,37.65
2023-02-05T10:04:55.411Z,24.13
2023-02-05T10:07:41.320Z,22.65
2023-02-05T10:10:28.131Z,23.40
2023-02-05T10:13:15.342Z,22.40
2023-02-05T10:15:58.236Z,21.83
2023-02-05T10:18:52.756Z,23.70
2023-02-05T10:21:33.885Z,24.48
2023-02-05T10:24:27.636Z,24.15
2023-02-05T10:27:25.843Z,22.65
2023-02-05T10:30:31.144Z,18.33
2023-02-05T10:33:05.424Z,19.52
2023-02-05T10:35:38.348Z,20.95
2023-02-05T10:38:15.973Z,21.48
2023-02-05T10:40:46.731Z,21.48
2023-02-05T10:43:35.865Z,16.95
2023-02-05T10:46:05.305Z,14.13
2023-02-05T10:48:44.550Z,21.10
2023-02-05T10:51:15.783Z,17.95
2023-02-05T10:53:44.526Z,13.88
2023-02-05T10:56:20.792Z,20.95
2023-02-05T10:58:55.169Z,14.38
2023-02-05T11:01:37.352Z,12.05
2023-02-05T11:04:12.136Z,12.73
2023-02-05T11:06:55.309Z,12.57
2023-02-05T11:09:24.937Z,11.43
2023-02-05T11:11:54.013Z,14.13
2023-02-05T11:14:41.627Z,12.07
2023-02-05T11:17:10.125Z,11.13
2023-02-05T11:19:39.539Z,14.90
2023-02-05T11:22:06.232Z,13.85
2023-02-05T11:24:43.066Z,9.68
2023-02-05T11:27:33.968Z,14.95
2023-02-05T11:30:53.314Z,10.60
2023-02-05T11:33:22.563Z,10.32
2023-02-05T11:35:54.809Z,9.40
2023-02-05T11:38:34.215Z,12.25
2023-02-05T11:41:05.636Z,13.40
2023-02-05T11:43:45.513Z,8.15
2023-02-05T11:46:18.601Z,10.65
2023-02-05T11:48:55.313Z,9.07
2023-02-05T11:51:43.035Z,12.35
2023-02-05T11:54:18.594Z,12.25
2023-02-05T11:57:17.450Z,15.60
2023-02-05T11:59:56.616Z,10.77
2023-02-05T12:02:25.687Z,12.07
2023-02-05T12:05:01.232Z,12.85
2023-02-05T12:07:33.030Z,14.35
2023-02-05T12:09:59.969Z,14.73
2023-02-05T12:12:40.191Z,15.80
2023-02-05T12:15:37.422Z,15.93
2023-02-05T12:18:24.192Z,24.80
2023-02-05T12:21:24.722Z,16.08
2023-02-05T12:24:01.074Z,17.23
2023-02-05T12:26:41.509Z,13.18
2023-02-05T12:29:36.465Z,12.25
2023-02-05T12:32:49.635Z,12.32
2023-02-05T12:35:30.010Z,17.65
2023-02-05T12:38:32.045Z,17.55
2023-02-05T12:41:17.441Z,14.23
2023-02-05T12:43:47.685Z,15.55
2023-02-05T12:46:40.318Z,13.77
2023-02-05T12:49:32.290Z,17.35
2023-02-05T12:52:25.564Z,19.52
2023-02-05T12:55:05.735Z,12.48
2023-02-05T12:57:52.191Z,14.85
2023-02-05T13:00:19.699Z,13.82
2023-02-05T13:03:33.060Z,11.38
2023-02-05T13:06:08.726Z,16.10
2023-02-05T13:11:25.315Z,14.05
2023-02-05T13:13:56.634Z,9.07
2023-02-05T13:16:33.983Z,8.73
2023-02-05T13:19:30.084Z,12.35
2023-02-05T13:22:29.509Z,10.27
2023-02-05T13:25:27.341Z,11.80
2023-02-05T13:28:32.785Z,12.77
2023-02-05T13:31:01.847Z,10.02
2023-02-05T13:33:28.832Z,6.78
2023-02-05T13:36:25.087Z,11.27
2023-02-05T13:39:13.914Z,8.85
2023-02-05T13:42:22.064Z,7.25
2023-02-05T13:44:57.390Z,6.07
2023-02-05T13:47:35.101Z,7.30
2023-02-05T13:50:26.210Z,11.02
2023-02-05T13:53:25.839Z,9.77
2023-02-05T13:56:24.414Z,9.63
2023-02-05T13:59:01.571Z,10.75
2023-02-05T14:01:39.289Z,8.75
2023-02-05T14:04:20.213Z,8.90
2023-02-05T14:06:58.683Z,9.80
2023-02-05T14:09:56.132Z,6.72
2023-02-05T14:12:25.446Z,7.72
2023-02-05T14:15:28.904Z,10.77
2023-02-05T14:18:00.029Z,9.52
2023-02-05T14:20:32.331Z,8.10
2023-02-05T14:23:03.339Z,15.20
2023-02-05T14:25:38.298Z,7.05
2023-02-05T14:28:18.709Z,8.55
2023-02-05T14:30:58.969Z,10.25
2023-02-05T14:33:44.070Z,11.70
2023-02-05T14:36:25.682Z,11.70
2023-02-05T14:39:01.579Z,16.00
2023-02-05T14:41:32.215Z,9.77
2023-02-05T14:44:17.619Z,10.10
2023-02-05T14:46:55.835Z,11.48
2023-02-05T14:49:26.909Z,10.23
2023-02-05T14:52:19.510Z,7.07
2023-02-05T14:54:53.358Z,8.88
2023-02-05T14:57:33.120Z,8.18
2023-02-05T15:00:06.675Z,11.68
2023-02-05T15:02:52.114Z,11.50
2023-02-05T15:05:29.289Z,14.48
2023-02-05T15:08:14.971Z,11.63
2023-02-05T15:11:08.512Z,11.55
2023-02-05T15:16:28.122Z,9.57
2023-02-05T15:18:58.803Z,9.77
2023-02-05T15:21:27.268Z,9.52
2023-02-05T15:24:01.252Z,10.75
2023-02-05T15:26:47.740Z,8.13
2023-02-05T15:29:32.834Z,12.60
2023-02-05T15:32:03.609Z,12.23
2023-02-05T15:34:40.154Z,10.57
2023-02-05T15:37:18.348Z,16.15
2023-02-05T15:39:52.262Z,15.50
2023-02-05T15:42:23.834Z,13.80
2023-02-05T15:44:50.327Z,14.75
2023-02-05T15:47:23.233Z,17.35
2023-02-05T15:49:52.583Z,15.10
2023-02-05T15:52:25.128Z,16.25
2023-02-05T15:54:54.904Z,11.85
2023-02-05T15:57:30.572Z,14.48
2023-02-05T16:02:27.516Z,13.27
2023-02-05T16:04:57.340Z,11.82
2023-02-05T16:07:30.318Z,15.07
2023-02-05T16:10:02.615Z,11.55
2023-02-05T16:12:31.384Z,12.95
2023-02-05T16:15:07.307Z,9.88
2023-02-05T16:17:33.859Z,11.52
2023-02-05T16:20:35.173Z,15.70
2023-02-05T16:23:06.633Z,10.20
2023-02-05T16:26:14.792Z,16.88
2023-02-05T16:28:56.284Z,13.82
2023-02-05T16:31:26.950Z,8.68
2023-02-05T16:33:58.800Z,13.40
2023-02-05T16:36:33.477Z,14.48
2023-02-05T16:39:03.077Z,17.92
2023-02-05T16:41:36.815Z,10.07
2023-02-05T16:44:06.716Z,15.80
2023-02-05T16:46:35.386Z,18.27
2023-02-05T16:49:21.935Z,13.38
2023-02-05T16:51:53.633Z,15.90
2023-02-05T16:54:20.120Z,13.88
2023-02-05T16:57:07.201Z,10.57
2023-02-05T16:59:39.383Z,12.77
2023-02-05T17:02:06.221Z,17.08
2023-02-05T17:04:40.735Z,14.95
2023-02-05T17:07:19.369Z,14.93
2023-02-05T17:09:55.509Z,15.10
2023-02-05T17:12:21.978Z,13.27
2023-02-05T17:15:10.204Z,14.88
2023-02-05T17:17:48.329Z,20.70
2023-02-05T17:20:20.457Z,16.50
2023-02-05T17:23:08.288Z,16.95
2023-02-05T17:25:40.094Z,15.20
2023-02-05T17:28:11.666Z,20.60
2023-02-05T17:30:51.283Z,16.13
2023-02-05T17:33:24.219Z,18.02
2023-02-05T17:35:51.410Z,18.25
2023-02-05T17:38:20.750Z,17.65
2023-02-05T17:43:39.240Z,23.30
2023-02-05T17:46:12.252Z,16.58
2023-02-05T17:48:40.101Z,17.92
2023-02-05T17:51:08.769Z,24.15
2023-02-05T17:53:35.340Z,18.27
2023-02-05T17:56:01.857Z,18.58
2023-02-05T17:58:30.165Z,19.58
2023-02-05T18:01:00.224Z,18.20
2023-02-05T18:03:27.376Z,17.55
2023-02-05T18:06:00.556Z,18.75
2023-02-05T18:08:27.103Z,16.75
2023-02-05T18:10:56.103Z,16.75
2023-02-05T18:13:22.914Z,16.38
2023-02-05T18:15:54.594Z,16.13
2023-02-05T18:18:21.135Z,15.07
2023-02-05T18:20:47.750Z,13.65
2023-02-05T18:23:27.593Z,13.23
2023-02-05T18:26:02.478Z,12.90
2023-02-05T18:28:29.054Z,13.30
2023-02-05T18:31:01.008Z,11.10
2023-02-05T18:33:29.766Z,12.15
2023-02-05T18:36:01.348Z,15.45
2023-02-05T18:38:29.540Z,13.25
2023-02-05T18:40:56.316Z,12.25
2023-02-05T18:43:26.145Z,13.63
2023-02-05T18:45:52.722Z,9.65
2023-02-05T18:48:19.474Z,14.65
2023-02-05T18:50:45.977Z,13.80
2023-02-05T18:53:12.527Z,13.48
2023-02-05T18:55:39.012Z,13.90
2023-02-05T18:58:05.584Z,11.63
2023-02-05T19:00:32.541Z,10.85
2023-02-05T19:02:59.397Z,11.65
2023-02-05T19:05:29.381Z,9.90
2023-02-05T19:07:55.875Z,10.65
2023-02-05T19:10:24.224Z,8.75
2023-02-05T19:12:50.987Z,11.40
2023-02-05T19:15:17.542Z,12.13
2023-02-05T19:17:46.390Z,12.55
2023-02-05T19:20:12.937Z,9.63
2023-02-05T19:22:39.416Z,12.93
2023-02-05T19:25:06.788Z,12.30
2023-02-05T19:27:33.265Z,11.43
2023-02-05T19:30:00.014Z,11.15
2023-02-05T19:32:26.785Z,8.80
2023-02-05T19:34:54.889Z,12.05
2023-02-05T19:37:21.826Z,10.50
2023-02-05T19:39:48.309Z,11.63
2023-02-05T19:42:14.874Z,13.00
2023-02-05T19:44:43.362Z,10.93
2023-02-05T19:47:12.458Z,11.18
2023-02-05T19:49:39.030Z,10.73
2023-02-05T19:52:06.647Z,13.75
2023-02-05T19:54:33.162Z,12.45
2023-02-05T19:56:59.861Z,8.23
2023-02-05T19:59:26.401Z,9.90
2023-02-05T20:01:55.496Z,10.93
2023-02-05T20:04:25.635Z,8.07
2023-02-05T20:06:58.401Z,8.32
2023-02-05T20:09:27.518Z,7.78
2023-02-05T20:11:55.419Z,12.65
2023-02-05T20:14:24.518Z,11.60
2023-02-05T20:16:52.222Z,8.63
2023-02-05T20:19:19.607Z,9.77
2023-02-05T20:21:49.500Z,10.05
2023-02-05T20:24:21.970Z,10.18
2023-02-05T20:26:48.881Z,9.95
2023-02-05T20:29:34.181Z,8.32
2023-02-05T20:32:02.316Z,10.77
2023-02-05T20:34:30.901Z,12.48
2023-02-05T20:37:04.544Z,9.88
2023-02-05T20:39:33.403Z,10.02
2023-02-05T20:42:00.270Z,16.13
2023-02-05T20:44:30.616Z,11.70
2023-02-05T20:46:57.161Z,14.88
2023-02-05T20:49:24.250Z,14.35
2023-02-05T20:51:53.086Z,14.50
2023-02-05T20:54:20.589Z,11.25
2023-02-05T20:56:50.028Z,14.88
2023-02-05T20:59:16.598Z,14.75
2023-02-05T21:01:43.245Z,15.38
2023-02-05T21:04:10.397Z,18.63
2023-02-05T21:06:39.527Z,17.45
2023-02-05T21:09:07.844Z,18.73
2023-02-05T21:11:34.637Z,17.05
2023-02-05T21:14:05.196Z,12.00
2023-02-05T21:16:34.280Z,13.90
2023-02-05T21:19:01.294Z,13.88
2023-02-05T21:21:33.112Z,11.90
2023-02-05T21:24:05.198Z,13.25
2023-02-05T21:26:38.049Z,14.45
2023-02-05T21:29:10.282Z,14.98
2023-02-05T21:31:45.298Z,17.95
2023-02-05T21:34:21.874Z,13.40
2023-02-05T21:36:55.624Z,12.43
2023-02-05T21:39:22.619Z,13.45
2023-02-05T21:41:50.889Z,13.98
2023-02-05T21:44:17.929Z,15.35
2023-02-05T21:46:44.398Z,13.30
2023-02-05T21:49:11.740Z,12.02
2023-02-05T21:51:38.349Z,16.48
2023-02-05T21:54:07.222Z,10.07
2023-02-05T21:56:41.520Z,9.43
2023-02-05T21:59:09.574Z,8.32
2023-02-05T22:01:37.151Z,7.00
2023-02-05T22:04:19.831Z,7.80
2023-02-05T22:06:46.463Z,7.53
2023-02-05T22:09:15.681Z,7.22
2023-02-05T22:11:47.736Z,10.80
2023-02-05T22:14:14.256Z,12.25
2023-02-05T22:16:42.746Z,10.60
2023-02-05T22:19:11.218Z,11.05
2023-02-05T22:21:40.232Z,11.13
2023-02-05T22:24:08.509Z,12.68
2023-02-05T22:26:38.719Z,13.48
2023-02-05T22:29:07.184Z,15.27
2023-02-05T22:31:34.805Z,13.00
2023-02-05T22:34:01.518Z,15.65
2023-02-05T22:36:30.405Z,14.25
2023-02-05T22:38:57.368Z,16.08
2023-02-05T22:41:29.512Z,11.05
2023-02-05T22:43:57.919Z,15.68
2023-02-05T22:46:27.186Z,15.27
2023-02-05T22:48:54.447Z,12.93
2023-02-05T22:51:27.339Z,15.35
2023-02-05T22:53:59.415Z,12.80
2023-02-05T22:56:26.689Z,16.02
2023-02-05T22:58:53.952Z,19.00
2023-02-05T23:01:24.800Z,21.75
2023-02-05T23:03:52.115Z,20.60
2023-02-05T23:06:28.591Z,18.70
2023-02-05T23:09:00.480Z,17.98
2023-02-05T23:11:29.125Z,25.48
2023-02-05T23:14:01.040Z,15.73
2023-02-05T23:16:30.623Z,24.67
2023-02-05T23:19:00.880Z,16.15
2023-02-05T23:21:29.535Z,11.73
2023-02-05T23:23:56.290Z,11.50
2023-02-05T23:26:34.344Z,14.10
2023-02-05T23:29:01.252Z,15.98
2023-02-05T23:31:30.166Z,13.40
2023-02-05T23:33:56.921Z,16.50
2023-02-05T23:36:23.440Z,20.45
2023-02-05T23:38:50.513Z,19.77
2023-02-05T23:41:36.813Z,14.05
2023-02-05T23:44:11.103Z,15.32
2023-02-05T23:46:39.685Z,13.82
2023-02-05T23:49:06.343Z,18.73
2023-02-05T23:51:33.353Z,13.90
2023-02-05T23:54:01.757Z,17.80
2023-02-05T23:56:31.916Z,13.45
2023-02-05T23:58:59.133Z,14.23
